• Join FlightAware (Why Join?)
  • Login
  • US Flag 
10:03AM EDT


 

Airport Tracker/Info


-or-


 

Live Flight TrackerFlight Track Log ✈ LXJ342 ✈ 11-May-2013 ✈ KAPF - KTEB

Flight Track Log - Related Links

Times and Time Zones

All times are in EDT time to prevent confusion due to time zone crossing. See the LXJ342 flight status page for this flight to view local times or setup timezone preferences in your user account.

Time Position Orientation Groundspeed Altitude Reporting Facility
EDT Latitude Longitude Course Direction KTS MPH feet Rate Location/Type
01:14PM 26.1719 -81.8750 North 262 302 3,900  Level Miami Center
01:15PM 26.2425 -81.8847 353° North 262 302 7,900 3,000 Climbing Miami Center
01:16PM 26.3206 -81.8628 14° North 267 307 9,900 1,800 Climbing Miami Center
01:17PM 26.4064 -81.8500 North 286 329 11,500 2,220 Climbing Miami Center
01:18PM 26.4989 -81.8331 North 316 364 14,400 2,880 Climbing Miami Center
01:19PM 26.8748 -81.7403 North  Level FlightAware Approximate
01:19PM 26.5933 -81.8186 North 327 376 17,300  Level Miami Center
01:20PM 26.6942 -81.8019 North 347 399 19,900 1,800 Climbing Miami Center
01:21PM 26.8014 -81.7761 12° North 368 423 21,000 1,500 Climbing Miami Center
01:22PM 26.9111 -81.7481 13° North 382 440 23,000 960 Climbing Miami Center
01:23PM 27.0247 -81.7203 12° North 401 461 23,000 1,020 Level Miami Center
01:24PM 27.1383 -81.6900 13° North 410 472 25,100 2,160 Climbing Miami Center
01:25PM 27.2478 -81.6644 12° North 410 472 27,400 1,440 Climbing Miami Center
01:26PM 27.3486 -81.6406 12° North 404 465 28,000 1,200 Climbing Miami Center
01:27PM 27.4667 -81.6103 13° North 420 483 29,800 1,860 Climbing Miami Center
01:28PM 27.5928 -81.5781 13° North 425 489 31,800 1,500 Climbing Miami Center
01:29PM 27.7106 -81.5500 12° North 420 483 32,800 840 Climbing Miami Center
01:30PM 27.8072 -81.5306 10° North 430 495 33,500 780 Climbing Miami Center
01:31PM 27.9408 -81.5314 360° North 430 495 34,400 900 Climbing Miami Center
01:32PM 28.0661 -81.5294 North 435 501 35,300 900 Climbing Miami Center
01:33PM 28.1872 -81.5297 360° North 441 507 36,300 1,260 Climbing Miami Center
01:34PM 28.3061 -81.5278 North 441 507 37,900 1,320 Climbing Miami Center
01:35PM 28.4189 -81.5253 North 421 484 39,000 540 Climbing Miami Center
01:36PM 28.5378 -81.5256 360° North 415 478 39,000  Level Miami Center
01:37PM 28.6567 -81.5233 North 420 483 39,000  Level Miami Center
01:37PM 28.7061 -81.5244 359° North 420 483 39,000 120 Level Jacksonville Center
01:38PM 28.8272 -81.5253 360° North 434 499 39,200 780 Climbing Jacksonville Center
01:39PM 28.9397 -81.5236 North 429 494 40,600 900 Climbing Jacksonville Center
01:40PM 29.0464 -81.5222 North 400 460 41,000 180 Climbing Jacksonville Center
01:41PM 29.1444 -81.5208 North 394 453 41,000  Level Jacksonville Center
01:42PM 29.2592 -81.5192 North 394 453 41,000  Level Jacksonville Center
01:43PM 29.3758 -81.5008 North 401 461 41,000  Level Jacksonville Center
01:44PM 29.4947 -81.4919 North 415 478 41,000  Level Jacksonville Center
01:45PM 29.6178 -81.4783 North 428 493 41,000  Level Jacksonville Center
01:46PM 29.7367 -81.4647 North 428 493 41,000  Level Jacksonville Center
01:47PM 29.8514 -81.4508 North 422 486 41,000  Level Jacksonville Center
01:48PM 29.9658 -81.4397 North 417 480 41,000  Level Jacksonville Center
01:49PM 30.0828 -81.4258 North 412 474 41,000  Level Jacksonville Center
01:50PM 30.2017 -81.4144 North 417 480 41,000  Level Jacksonville Center
01:51PM 30.3164 -81.4006 North 417 480 41,000  Level Jacksonville Center
01:52PM 30.4267 -81.3917 North 417 480 41,000  Level Jacksonville Center
01:53PM 30.5497 -81.3778 North 404 465 41,000  Level Jacksonville Center
01:54PM 30.6603 -81.3664 North 404 465 41,000  Level Jacksonville Center
01:55PM 30.7731 -81.3547 North 404 465 41,000  Level Jacksonville Center
01:56PM 30.8792 -81.3433 North 404 465 41,000  Level Jacksonville Center
01:57PM 30.9919 -81.3294 North 404 465 41,000  Level Jacksonville Center
01:58PM 31.0983 -81.3181 North 388 447 41,000  Level Jacksonville Center
01:59PM 31.2089 -81.3089 North 379 436 41,000  Level Jacksonville Center
02:00PM 31.3172 -81.2972 North 387 445 41,000  Level Jacksonville Center
02:01PM 31.4233 -81.2736 11° North 387 445 41,000  Level Jacksonville Center
02:02PM 31.5269 -81.2206 24° Northeast 420 483 41,000  Level Jacksonville Center
02:03PM 31.6492 -81.1500 26° Northeast 440 506 41,000  Level Jacksonville Center
02:04PM 31.7486 -81.0944 25° Northeast 446 513 41,000  Level Jacksonville Center
02:05PM 31.8731 -81.0236 26° Northeast 441 507 41,000  Level Jacksonville Center
02:06PM 31.9869 -80.9600 25° Northeast 441 507 41,000  Level Jacksonville Center
02:07PM 32.0903 -80.9014 26° Northeast 447 514 41,000  Level Jacksonville Center
02:08PM 32.2144 -80.8325 25° Northeast 441 507 41,000  Level Jacksonville Center
02:09PM 32.3158 -80.7786 24° Northeast 441 507 41,000  Level Jacksonville Center
02:10PM 32.4400 -80.7067 26° Northeast 442 509 41,000  Level Jacksonville Center
02:11PM 32.5369 -80.6503 26° Northeast 442 509 41,000  Level Jacksonville Center
02:12PM 32.6508 -80.5856 26° Northeast 442 509 41,000  Level Jacksonville Center
02:13PM 32.7644 -80.5211 25° Northeast 442 509 41,000  Level Jacksonville Center
02:14PM 32.8758 -80.4561 26° Northeast 442 509 41,000  Level Jacksonville Center
02:15PM 33.0078 -80.3783 26° Northeast 459 528 41,000  Level Jacksonville Center
02:16PM 33.1275 -80.3081 26° Northeast 463 533 41,000  Level Jacksonville Center
02:17PM 33.2328 -80.2553 23° Northeast 462 532 41,000  Level Jacksonville Center
02:18PM 33.3442 -80.1850 28° Northeast 456 525 41,000  Level Jacksonville Center
02:19PM 33.4617 -80.1167 26° Northeast 451 519 41,000  Level Jacksonville Center
02:20PM 33.5769 -80.0481 26° Northeast 456 525 41,000  Level Jacksonville Center
02:21PM 33.6942 -79.9794 26° Northeast 461 531 41,000  Level Jacksonville Center
02:22PM 33.8117 -79.9106 26° Northeast 461 531 41,000  Level Jacksonville Center
02:23PM 33.9289 -79.8414 26° Northeast 461 531 41,000  Level Jacksonville Center
02:24PM 34.0461 -79.7722 26° Northeast 461 531 41,000  Level Jacksonville Center
02:27PM 34.2894 -79.6286 26° Northeast 456 525 41,000  Level Washington Center
02:28PM 34.4083 -79.5692 22° Northeast 456 525 41,000  Level Washington Center
02:28PM 34.5250 -79.5042 25° Northeast 456 525 41,000  Level Washington Center
02:29PM 34.6461 -79.4444 22° Northeast 456 525 41,000  Level Washington Center
02:30PM 34.7628 -79.3817 24° Northeast 456 525 41,000  Level Washington Center
02:31PM 34.8817 -79.3189 23° Northeast 456 525 41,000  Level Washington Center
02:33PM 35.0025 -79.2558 23° Northeast 462 532 41,000  Level Washington Center
02:33PM 35.1211 -79.1928 23° Northeast 462 532 41,000  Level Washington Center
02:34PM 35.2400 -79.1294 24° Northeast 462 532 41,000  Level Washington Center
02:35PM 35.3606 -79.0686 22° Northeast 473 544 41,000  Level Washington Center
02:37PM 35.4814 -79.0022 24° Northeast 468 539 41,000  Level Washington Center
02:38PM 35.6003 -78.9383 24° Northeast 463 533 41,000  Level Washington Center
02:38PM 35.7208 -78.8719 24° Northeast 463 533 41,000  Level Washington Center
02:39PM 35.8394 -78.8075 24° Northeast 463 533 41,000  Level Washington Center
02:40PM 35.9603 -78.7406 24° Northeast 463 533 41,000  Level Washington Center
02:41PM 36.0789 -78.6733 25° Northeast 463 533 41,000  Level Washington Center
02:42PM 36.2058 -78.6011 25° Northeast 463 533 41,000  Level Washington Center
02:43PM 36.3264 -78.5336 24° Northeast 463 533 41,000  Level Washington Center
02:45PM 36.4450 -78.4631 26° Northeast 463 533 41,000  Level Washington Center
02:46PM 36.5656 -78.3928 25° Northeast 463 533 41,000  Level Washington Center
02:46PM 36.6842 -78.3244 25° Northeast 463 533 41,000  Level Washington Center
02:47PM 36.8044 -78.2561 24° Northeast 463 533 41,000  Level Washington Center
02:48PM 36.9250 -78.1847 25° Northeast 469 540 41,000  Level Washington Center
02:50PM 37.0456 -78.1133 25° Northeast 473 544 41,000  Level Washington Center
02:50PM 37.1642 -78.0208 32° Northeast 473 544 41,000  Level Washington Center
02:52PM 37.2706 -77.9172 38° Northeast 484 557 41,000  Level Washington Center
02:52PM 37.3831 -77.8083 38° Northeast 496 571 41,000  Level Washington Center
02:53PM 37.4914 -77.7014 38° Northeast 496 571 41,000  Level Washington Center
02:54PM 37.6039 -77.5944 37° Northeast 496 571 41,000 -540 Level Washington Center
02:55PM 37.7183 -77.4819 38° Northeast 496 571 40,000 -1,080 Descending Washington Center
02:56PM 37.8325 -77.3717 37° Northeast 501 577 38,900 -1,080 Descending Washington Center
02:57PM 37.9469 -77.2586 38° Northeast 511 588 37,900 -1,080 Descending Washington Center
02:58PM 38.0653 -77.1425 38° Northeast 523 602 36,800 -1,140 Descending Washington Center
02:59PM 38.1814 -77.0286 38° Northeast 528 608 35,700 -1,140 Descending Washington Center
03:01PM 38.2972 -76.9092 39° Northeast 528 608 34,600 -1,200 Descending Washington Center
03:01PM 38.4069 -76.7919 40° Northeast 522 601 33,400 -1,200 Descending Washington Center
03:02PM 38.5167 -76.6742 40° Northeast 517 595 32,300 -1,080 Descending Washington Center
03:04PM 38.6300 -76.5564 39° Northeast 517 595 31,300 -1,140 Descending Washington Center
03:04PM 38.7456 -76.4381 39° Northeast 517 595 30,100 -1,680 Descending Washington Center
03:05PM 38.8753 -76.3728 21° North 512 589 28,000 -1,920 Descending Washington Center
03:07PM 38.9986 -76.3128 21° North 484 557 26,200 -1,920 Descending Washington Center
03:07PM 39.1200 -76.2525 21° North 473 544 24,300 -1,140 Descending Washington Center
03:08PM 39.2183 -76.1569 37° Northeast 474 545 24,000 -300 Descending Washington Center
03:09PM 39.3231 -76.0450 40° Northeast 479 551 23,700 -1,920 Descending Washington Center
03:12PM 39.5667 -75.8167 36° Northeast 444 511 17,900 -2,460 Descending Philadelphia TRACON
03:13PM 39.6667 -75.7167 38° Northeast 426 490 15,700 -2,100 Descending Philadelphia TRACON
03:14PM 39.7667 -75.6500 27° Northeast 401 461 13,600 -1,980 Descending Philadelphia TRACON
03:15PM 39.8500 -75.5833 32° Northeast 391 450 12,000 -1,380 Descending Philadelphia TRACON
03:16PM 39.9500 -75.5167 27° Northeast 390 449 11,000 -540 Descending Philadelphia TRACON
03:17PM 40.0500 -75.4667 21° North 371 427 11,000  Level Philadelphia TRACON
03:18PM 40.1333 -75.4000 31° Northeast 354 407 11,000 -420 Level Philadelphia TRACON
03:19PM 40.2333 -75.3333 27° Northeast 342 394 10,200 -1,140 Descending Philadelphia TRACON
03:20PM 40.3000 -75.2667 37° Northeast 325 374 8,800 -1,500 Descending Philadelphia TRACON
03:21PM 40.3667 -75.1833 44° Northeast 322 371 7,400 -660 Descending Philadelphia TRACON
03:22PM 40.4500 -75.0333 54° Northeast 312 359 7,100 -360 Descending New York TRACON
03:23PM 40.5000 -74.9500 52° Northeast 315 362 6,600 -960 Descending New York TRACON
03:24PM 40.5667 -74.8833 37° Northeast 312 359 5,200 -1,320 Descending New York TRACON
03:25PM 40.6500 -74.8167 31° Northeast 295 339 4,000 -600 Descending New York TRACON
03:26PM 40.7167 -74.7667 30° Northeast 292 336 4,000 -360 Level New York TRACON
03:27PM 40.7833 -74.7167 30° Northeast 282 325 3,300 -540 Descending New York TRACON
03:28PM 40.8500 -74.6667 30° Northeast 272 313 3,000 -180 Descending New York TRACON
03:29PM 40.9000 -74.5833 52° Northeast 281 323 3,000  Level New York TRACON
03:30PM 40.9500 -74.5167 45° Northeast 275 316 3,000  Level New York TRACON
03:31PM 41.0000 -74.4333 51° Northeast 267 307 3,000  Level New York TRACON
03:32PM 41.0333 -74.3667 56° Northeast 264 304 3,000  Level New York TRACON
03:33PM 41.0667 -74.2667 66° East 269 310 3,000  Level New York TRACON
03:34PM 41.0500 -74.1833 105° East 274 315 3,000 -540 Level New York TRACON
03:35PM 41.0333 -74.0833 102° East 252 290 2,000 -540 Descending New York TRACON
03:36PM 40.9833 -74.0500 153° Southeast 235 270 2,000 -300 Level New York TRACON
03:37PM 40.9333 -74.0500 180° South 166 191 1,400 -660 Descending New York TRACON
03:38PM 40.8833 -74.0500 180° South 133 153 700 -720 Descending New York TRACON
03:40PM 40.8500 -74.0500 143° Southeast  Level FlightAware Approximate